Terminal Aerodrome Forecast
Issued by NWS

Home | Current Version | Previous Version | Text Only | Print | Product List | Glossary On
Versions: 1 2 3 4 5 6 7 8 9 10 11 12 13 14 15 16 17 18 19 20
000
FTUS42 TJSJ 191130
TAFISX
TAF
TISX 191130Z 1912/2012 05006KT P6SM SCT022
      TEMPO 1912/1914 BKN022 BKN035
     FM191400 12011KT P6SM FEW030
     FM192200 09008KT P6SM VCSH SCT025
      AMD NOT SKED=

USA.gov is the U.S. government's official web portal to all federal, state and local government web resources and services.